createdAt,value
2018-05-26T00:00:26.089Z,15.60
2018-05-26T00:01:26.121Z,15.57
2018-05-26T00:02:26.060Z,15.57
2018-05-26T00:03:26.046Z,15.57
2018-05-26T00:04:26.031Z,15.57
2018-05-26T00:05:26.015Z,15.57
2018-05-26T00:06:26.001Z,15.59
2018-05-26T00:07:25.986Z,15.53
2018-05-26T00:08:25.971Z,15.49
2018-05-26T00:09:25.957Z,15.57
2018-05-26T00:10:25.944Z,15.54
2018-05-26T00:11:25.928Z,15.54
2018-05-26T00:12:25.914Z,15.47
2018-05-26T00:13:25.898Z,15.47
2018-05-26T00:14:25.887Z,15.43
2018-05-26T00:15:25.871Z,15.44
2018-05-26T00:16:25.855Z,15.49
2018-05-26T00:17:25.838Z,15.47
2018-05-26T00:18:25.825Z,15.41
2018-05-26T00:19:25.810Z,15.44
2018-05-26T00:20:25.797Z,15.44
2018-05-26T00:21:25.779Z,15.41
2018-05-26T00:22:25.765Z,15.35
2018-05-26T00:23:25.753Z,15.43
2018-05-26T00:24:25.736Z,15.44
2018-05-26T00:25:25.722Z,15.41
2018-05-26T00:26:25.706Z,15.34
2018-05-26T00:27:25.693Z,15.27
2018-05-26T00:28:25.732Z,15.27
2018-05-26T00:29:25.725Z,15.21
2018-05-26T00:30:25.647Z,15.14
2018-05-26T00:31:25.636Z,15.07
2018-05-26T00:32:25.617Z,15.07
2018-05-26T00:33:25.603Z,15.07
2018-05-26T00:34:25.612Z,14.94
2018-05-26T00:35:25.572Z,14.92
2018-05-26T00:36:25.563Z,14.98
2018-05-26T00:37:25.543Z,14.94
2018-05-26T00:38:25.528Z,14.95
2018-05-26T00:39:25.525Z,14.96
2018-05-26T00:40:25.504Z,14.88
2018-05-26T00:41:25.491Z,14.88
2018-05-26T00:42:25.467Z,14.91
2018-05-26T00:43:25.457Z,14.96
2018-05-26T00:44:25.438Z,14.89
2018-05-26T00:45:25.423Z,14.92
2018-05-26T00:46:25.408Z,15.06
2018-05-26T00:47:25.392Z,14.99
2018-05-26T00:48:25.379Z,14.91
2018-05-26T00:49:25.361Z,14.89
2018-05-26T00:50:25.347Z,14.83
2018-05-26T00:51:25.333Z,14.78
2018-05-26T00:52:25.318Z,14.77
2018-05-26T00:53:25.305Z,14.72
2018-05-26T00:54:25.345Z,14.75
2018-05-26T00:55:25.278Z,14.77
2018-05-26T00:56:25.256Z,14.68
2018-05-26T00:57:25.245Z,14.65
2018-05-26T00:58:25.224Z,14.73
2018-05-26T00:59:25.209Z,14.77
2018-05-26T01:00:25.198Z,14.70
2018-05-26T01:01:25.181Z,14.80
2018-05-26T01:02:25.163Z,14.78
2018-05-26T01:03:25.148Z,14.99
2018-05-26T01:04:25.134Z,14.94
2018-05-26T01:05:25.117Z,14.92
2018-05-26T01:06:25.106Z,14.96
2018-05-26T01:07:25.097Z,14.96
2018-05-26T01:08:25.072Z,15.13
2018-05-26T01:09:25.055Z,15.13
2018-05-26T01:10:25.042Z,15.10
2018-05-26T01:11:25.026Z,14.92
2018-05-26T01:12:25.014Z,14.94
2018-05-26T01:13:24.995Z,14.89
2018-05-26T01:14:24.979Z,14.91
2018-05-26T01:15:24.963Z,14.81
2018-05-26T01:16:24.953Z,14.78
2018-05-26T01:17:24.939Z,14.86
2018-05-26T01:18:24.920Z,14.86
2018-05-26T01:19:24.905Z,14.78
2018-05-26T01:20:24.888Z,14.75
2018-05-26T01:21:24.871Z,14.73
2018-05-26T01:22:24.853Z,14.70
2018-05-26T01:23:24.842Z,14.65
2018-05-26T01:24:24.828Z,14.78
2018-05-26T01:25:24.810Z,14.70
2018-05-26T01:26:24.793Z,14.72
2018-05-26T01:27:24.779Z,14.95
2018-05-26T01:28:24.763Z,14.78
2018-05-26T01:29:24.747Z,14.94
2018-05-26T01:30:24.732Z,14.92
2018-05-26T01:31:24.718Z,14.89
2018-05-26T01:32:24.707Z,14.94
2018-05-26T01:33:24.685Z,15.01
2018-05-26T01:34:24.672Z,15.02
2018-05-26T01:35:24.656Z,14.98
2018-05-26T01:36:24.640Z,14.94
2018-05-26T01:37:24.623Z,15.01
2018-05-26T01:38:24.608Z,14.92
2018-05-26T01:39:24.590Z,14.96
2018-05-26T01:40:24.577Z,14.98
2018-05-26T01:41:24.561Z,15.01
2018-05-26T01:42:24.545Z,15.09
2018-05-26T01:43:24.531Z,15.09
2018-05-26T01:44:24.515Z,15.10
2018-05-26T01:45:24.495Z,15.10
2018-05-26T01:46:24.484Z,15.09
2018-05-26T01:47:24.466Z,14.98
2018-05-26T01:48:24.456Z,14.96
2018-05-26T01:49:24.438Z,14.84
2018-05-26T01:50:24.424Z,14.80
2018-05-26T01:51:24.405Z,14.70
2018-05-26T01:52:24.390Z,14.77
2018-05-26T01:53:24.373Z,14.75
2018-05-26T01:54:24.361Z,14.68
2018-05-26T01:55:24.341Z,14.68
2018-05-26T01:56:24.332Z,14.70
2018-05-26T01:57:24.311Z,14.72
2018-05-26T01:58:24.297Z,14.70
2018-05-26T01:59:24.279Z,14.69
2018-05-26T02:00:24.268Z,14.57
2018-05-26T02:01:24.250Z,14.46
2018-05-26T02:02:24.233Z,14.47
2018-05-26T02:03:24.222Z,14.40
2018-05-26T02:04:24.203Z,14.33
2018-05-26T02:05:24.185Z,14.42
2018-05-26T02:06:24.170Z,14.36
2018-05-26T02:07:24.153Z,14.28
2018-05-26T02:08:24.140Z,14.15
2018-05-26T02:09:24.120Z,14.20
2018-05-26T02:10:24.106Z,14.17
2018-05-26T02:11:24.090Z,14.21
2018-05-26T02:12:24.077Z,14.14
2018-05-26T02:13:24.064Z,14.07
2018-05-26T02:14:24.055Z,14.12
2018-05-26T02:15:24.027Z,14.04
2018-05-26T02:16:24.012Z,14.10
2018-05-26T02:17:23.993Z,14.04
2018-05-26T02:18:23.985Z,14.02
2018-05-26T02:19:23.963Z,14.09
2018-05-26T02:20:23.949Z,14.09
2018-05-26T02:21:23.932Z,14.09
2018-05-26T02:22:23.916Z,14.09
2018-05-26T02:23:23.903Z,14.06
2018-05-26T02:24:23.884Z,14.06
2018-05-26T02:25:23.871Z,14.02
2018-05-26T02:26:23.856Z,14.04
2018-05-26T02:27:23.835Z,14.07
2018-05-26T02:28:23.824Z,14.10
2018-05-26T02:29:23.804Z,14.09
2018-05-26T02:30:23.789Z,14.10
2018-05-26T02:31:23.775Z,14.09
2018-05-26T02:32:23.758Z,14.10
2018-05-26T02:33:23.741Z,14.04
2018-05-26T02:34:23.725Z,14.07
2018-05-26T02:35:23.708Z,14.12
2018-05-26T02:36:23.702Z,14.20
2018-05-26T02:37:23.682Z,14.06
2018-05-26T02:38:23.664Z,14.17
2018-05-26T02:39:23.645Z,14.17
2018-05-26T02:40:23.629Z,14.21
2018-05-26T02:41:23.613Z,14.14
2018-05-26T02:42:23.597Z,14.27
2018-05-26T02:43:23.582Z,14.25
2018-05-26T02:44:23.563Z,14.29
2018-05-26T02:45:23.550Z,14.39
2018-05-26T02:46:23.533Z,14.40
2018-05-26T02:47:23.516Z,14.33
2018-05-26T02:48:23.502Z,14.29
2018-05-26T02:49:23.489Z,14.28
2018-05-26T02:50:23.468Z,14.21
2018-05-26T02:51:23.453Z,14.28
2018-05-26T02:52:23.438Z,14.21
2018-05-26T02:53:23.420Z,14.22
2018-05-26T02:54:23.404Z,14.18
2018-05-26T02:55:23.389Z,14.18
2018-05-26T02:56:23.373Z,14.17
2018-05-26T02:57:23.352Z,14.15
2018-05-26T02:58:23.345Z,14.07
2018-05-26T02:59:23.323Z,14.07
2018-05-26T03:00:23.309Z,14.10
2018-05-26T03:01:23.292Z,14.09
2018-05-26T03:02:23.278Z,14.06
2018-05-26T03:03:23.259Z,14.06
2018-05-26T03:04:23.248Z,14.02
2018-05-26T03:05:23.229Z,14.04
2018-05-26T03:06:23.213Z,14.06
2018-05-26T03:07:23.203Z,14.09
2018-05-26T03:08:23.181Z,14.06
2018-05-26T03:09:23.161Z,14.06
2018-05-26T03:10:23.147Z,14.07
2018-05-26T03:11:23.130Z,14.07
2018-05-26T03:12:23.117Z,14.06
2018-05-26T03:13:23.149Z,14.03
2018-05-26T03:14:23.082Z,14.09
2018-05-26T03:15:23.068Z,14.03
2018-05-26T03:16:23.053Z,13.99
2018-05-26T03:17:23.045Z,13.89
2018-05-26T03:18:23.036Z,13.85
2018-05-26T03:19:23.000Z,13.88
2018-05-26T03:20:22.989Z,13.89
2018-05-26T03:21:22.968Z,13.88
2018-05-26T03:22:22.953Z,13.78
2018-05-26T03:23:22.936Z,13.89
2018-05-26T03:24:22.921Z,13.84
2018-05-26T03:25:22.903Z,13.82
2018-05-26T03:26:22.887Z,13.82
2018-05-26T03:27:22.871Z,13.82
2018-05-26T03:28:22.855Z,13.75
2018-05-26T03:29:22.840Z,13.85
2018-05-26T03:30:22.821Z,13.84
2018-05-26T03:31:22.808Z,13.89
2018-05-26T03:32:22.790Z,13.82
2018-05-26T03:33:22.774Z,13.84
2018-05-26T03:34:22.761Z,13.84
2018-05-26T03:35:22.741Z,13.79
2018-05-26T03:36:22.780Z,13.84
2018-05-26T03:37:22.712Z,13.89
2018-05-26T03:38:22.696Z,13.79
2018-05-26T03:39:22.673Z,13.85
2018-05-26T03:40:22.662Z,13.84
2018-05-26T03:41:22.650Z,13.85
2018-05-26T03:42:22.629Z,13.87
2018-05-26T03:43:22.611Z,13.85
2018-05-26T03:44:22.594Z,13.87
2018-05-26T03:45:22.578Z,13.79
2018-05-26T03:46:22.565Z,13.78
2018-05-26T03:47:22.545Z,13.84
2018-05-26T03:48:22.532Z,13.85
2018-05-26T03:49:22.516Z,13.88
2018-05-26T03:50:22.496Z,13.82
2018-05-26T03:51:22.482Z,13.84
2018-05-26T03:52:22.464Z,13.88
2018-05-26T03:53:22.447Z,13.81
2018-05-26T03:54:22.430Z,13.84
2018-05-26T03:55:22.413Z,13.84
2018-05-26T03:56:22.400Z,13.78
2018-05-26T03:57:22.380Z,13.87
2018-05-26T03:58:22.365Z,13.84
2018-05-26T03:59:22.353Z,13.79
2018-05-26T04:00:22.333Z,13.85
2018-05-26T04:01:22.321Z,14.00
2018-05-26T04:02:22.298Z,14.02
2018-05-26T04:03:22.286Z,13.96
2018-05-26T04:04:22.267Z,14.04
2018-05-26T04:05:22.251Z,14.04
2018-05-26T04:06:22.239Z,14.06
2018-05-26T04:07:22.220Z,14.10
2018-05-26T04:08:22.203Z,14.04
2018-05-26T04:09:22.189Z,14.04
2018-05-26T04:10:22.173Z,14.02
2018-05-26T04:11:22.187Z,14.04
2018-05-26T04:12:22.143Z,14.09
2018-05-26T04:13:22.123Z,14.12
2018-05-26T04:14:22.104Z,14.04
2018-05-26T04:15:22.088Z,14.12
2018-05-26T04:16:22.073Z,14.24
2018-05-26T04:17:22.056Z,14.14
2018-05-26T04:18:22.039Z,14.15
2018-05-26T04:19:22.023Z,14.27
2018-05-26T04:20:22.009Z,14.32
2018-05-26T04:21:21.993Z,14.21
2018-05-26T04:22:21.974Z,14.21
2018-05-26T04:23:21.960Z,14.32
2018-05-26T04:24:21.942Z,14.37
2018-05-26T04:25:21.925Z,14.27
2018-05-26T04:26:21.909Z,14.33
2018-05-26T04:27:21.893Z,14.35
2018-05-26T04:28:21.877Z,14.32
2018-05-26T04:29:21.864Z,14.40
2018-05-26T04:30:21.845Z,14.32
2018-05-26T04:31:21.837Z,14.39
2018-05-26T04:32:21.812Z,14.36
2018-05-26T04:33:21.796Z,14.43
2018-05-26T04:34:21.779Z,14.57
2018-05-26T04:35:21.794Z,14.47
2018-05-26T04:36:21.749Z,14.45
2018-05-26T04:37:21.731Z,14.61
2018-05-26T04:38:21.718Z,14.65
2018-05-26T04:39:21.698Z,14.57
2018-05-26T04:40:21.689Z,14.65
2018-05-26T04:41:21.667Z,14.57
2018-05-26T04:42:21.653Z,14.73
2018-05-26T04:43:21.640Z,14.68
2018-05-26T04:44:21.622Z,14.73
2018-05-26T04:45:21.602Z,14.65
2018-05-26T04:46:21.590Z,14.75
2018-05-26T04:47:21.569Z,14.73
2018-05-26T04:48:21.558Z,14.73
2018-05-26T04:49:21.538Z,14.73
2018-05-26T04:50:21.527Z,14.78
2018-05-26T04:51:21.508Z,14.83
2018-05-26T04:52:21.500Z,14.83
2018-05-26T04:53:21.471Z,14.84
2018-05-26T04:54:21.458Z,14.92
2018-05-26T04:55:21.443Z,14.94
2018-05-26T04:56:21.428Z,14.99
2018-05-26T04:57:21.413Z,15.06
2018-05-26T04:58:21.395Z,15.06
2018-05-26T04:59:21.380Z,15.13
2018-05-26T05:00:21.362Z,15.13
2018-05-26T05:01:21.346Z,15.28
2018-05-26T05:02:21.330Z,15.29
2018-05-26T05:03:21.315Z,15.31
2018-05-26T05:04:21.298Z,15.32
2018-05-26T05:05:21.285Z,15.34
2018-05-26T05:06:21.270Z,15.29
2018-05-26T05:07:21.255Z,15.41
2018-05-26T05:08:21.237Z,15.34
2018-05-26T05:09:21.222Z,15.44
2018-05-26T05:10:21.208Z,15.39
2018-05-26T05:11:21.187Z,15.47
2018-05-26T05:12:21.171Z,15.51
2018-05-26T05:13:21.155Z,15.54
2018-05-26T05:14:21.153Z,15.64
2018-05-26T05:15:21.178Z,15.64
2018-05-26T05:16:21.110Z,15.56
2018-05-26T05:17:21.093Z,15.59
2018-05-26T05:18:21.076Z,15.53
2018-05-26T05:19:21.065Z,15.65
2018-05-26T05:20:21.047Z,15.67
2018-05-26T05:21:21.031Z,15.69
2018-05-26T05:22:21.019Z,15.67
2018-05-26T05:23:20.998Z,15.71
2018-05-26T05:24:20.983Z,15.68
2018-05-26T05:25:20.967Z,15.65
2018-05-26T05:26:20.956Z,15.67
2018-05-26T05:27:20.935Z,15.72
2018-05-26T05:28:20.921Z,15.72
2018-05-26T05:29:20.913Z,15.75
2018-05-26T05:30:20.889Z,15.80
2018-05-26T05:31:20.875Z,15.78
2018-05-26T05:32:20.859Z,15.89
2018-05-26T05:33:20.847Z,15.82
2018-05-26T05:34:20.830Z,15.93
2018-05-26T05:35:20.812Z,15.94
2018-05-26T05:36:20.800Z,15.96
2018-05-26T05:37:20.781Z,16.04
2018-05-26T05:38:20.767Z,16.09
2018-05-26T05:39:20.752Z,16.25
2018-05-26T05:40:20.736Z,16.24
2018-05-26T05:41:20.721Z,16.39
2018-05-26T05:42:20.705Z,16.38
2018-05-26T05:43:20.691Z,16.50
2018-05-26T05:44:20.675Z,16.57
2018-05-26T05:45:20.660Z,16.81
2018-05-26T05:46:20.648Z,16.76
2018-05-26T05:47:20.631Z,16.86
2018-05-26T05:48:20.614Z,16.96
2018-05-26T05:49:20.597Z,16.96
2018-05-26T05:50:20.583Z,17.16
2018-05-26T05:51:20.568Z,17.21
2018-05-26T05:52:20.557Z,17.22
2018-05-26T05:53:20.538Z,17.36
2018-05-26T05:54:20.525Z,17.38
2018-05-26T05:55:20.506Z,17.51
2018-05-26T05:56:20.541Z,17.55
2018-05-26T05:57:20.480Z,17.75
2018-05-26T05:58:20.465Z,17.75
2018-05-26T05:59:20.448Z,17.77
2018-05-26T06:00:20.434Z,17.82
2018-05-26T06:01:20.419Z,17.93
2018-05-26T06:02:20.409Z,18.03
2018-05-26T06:03:20.390Z,18.08
2018-05-26T06:04:20.375Z,18.18
2018-05-26T06:05:20.359Z,18.20
2018-05-26T06:06:20.346Z,18.25
2018-05-26T06:07:20.331Z,18.30
2018-05-26T06:08:20.322Z,18.39
2018-05-26T06:09:20.304Z,18.51
2018-05-26T06:10:20.286Z,18.54
2018-05-26T06:11:20.273Z,18.72
2018-05-26T06:12:20.265Z,18.72
2018-05-26T06:13:20.251Z,18.75
2018-05-26T06:14:20.232Z,18.78
2018-05-26T06:15:20.233Z,18.84
2018-05-26T06:16:20.200Z,18.92
2018-05-26T06:17:20.195Z,18.88
2018-05-26T06:18:20.171Z,18.91
2018-05-26T06:19:20.159Z,18.94
2018-05-26T06:20:20.148Z,18.98
2018-05-26T06:21:20.131Z,19.08
2018-05-26T06:22:20.118Z,19.06
2018-05-26T06:23:20.101Z,19.19
2018-05-26T06:24:20.096Z,19.26
2018-05-26T06:25:20.078Z,19.28
2018-05-26T06:26:20.113Z,19.36
2018-05-26T06:27:20.050Z,19.29
2018-05-26T06:28:20.032Z,19.37
2018-05-26T06:29:20.016Z,19.59
2018-05-26T06:30:20.007Z,19.59
2018-05-26T06:31:19.991Z,19.63
2018-05-26T06:32:19.976Z,19.69
2018-05-26T06:33:19.961Z,19.77
2018-05-26T06:34:19.946Z,19.78
2018-05-26T06:35:19.936Z,19.77
2018-05-26T06:36:19.924Z,19.84
2018-05-26T06:37:19.906Z,19.96
2018-05-26T06:38:19.892Z,19.96
2018-05-26T06:39:19.879Z,19.94
2018-05-26T06:40:19.867Z,20.06
2018-05-26T06:41:19.850Z,20.14
2018-05-26T06:42:19.840Z,20.06
2018-05-26T06:43:19.825Z,20.26
2018-05-26T06:44:19.814Z,20.32
2018-05-26T06:45:19.815Z,20.31
2018-05-26T06:46:19.784Z,20.33
2018-05-26T06:47:19.775Z,20.33
2018-05-26T06:48:19.762Z,20.36
2018-05-26T06:49:19.746Z,20.38
2018-05-26T06:50:19.729Z,20.52
2018-05-26T06:51:19.730Z,20.61
2018-05-26T06:52:19.705Z,20.67
2018-05-26T06:53:19.690Z,20.74
2018-05-26T06:54:19.677Z,20.89
2018-05-26T06:55:19.668Z,20.88
2018-05-26T06:56:19.653Z,20.84
2018-05-26T06:57:19.639Z,20.89
2018-05-26T06:58:19.629Z,20.94
2018-05-26T06:59:19.616Z,20.94
2018-05-26T07:00:19.634Z,21.01
2018-05-26T07:01:19.589Z,21.01
2018-05-26T07:02:19.579Z,21.12
2018-05-26T07:03:19.567Z,21.16
2018-05-26T07:04:19.556Z,21.27
2018-05-26T07:05:19.537Z,21.29
2018-05-26T07:06:19.527Z,21.42
2018-05-26T07:07:19.515Z,21.43
2018-05-26T07:08:19.501Z,21.52
2018-05-26T07:09:19.488Z,21.49
2018-05-26T07:10:19.476Z,21.59
2018-05-26T07:11:19.470Z,21.71
2018-05-26T07:12:19.452Z,21.84
2018-05-26T07:13:19.437Z,21.83
2018-05-26T07:14:19.426Z,21.96
2018-05-26T07:15:19.411Z,22.05
2018-05-26T07:16:19.403Z,22.15
2018-05-26T07:17:19.390Z,22.21
2018-05-26T07:18:19.378Z,22.31
2018-05-26T07:19:19.362Z,22.30
2018-05-26T07:20:19.362Z,22.46
2018-05-26T07:21:19.340Z,22.43
2018-05-26T07:22:19.330Z,22.62
2018-05-26T07:23:19.317Z,22.67
2018-05-26T07:24:19.307Z,22.73
2018-05-26T07:25:19.290Z,22.79
2018-05-26T07:26:19.289Z,22.98
2018-05-26T07:27:19.271Z,23.07
2018-05-26T07:28:19.273Z,23.12
2018-05-26T07:29:19.247Z,23.16
2018-05-26T07:30:19.231Z,23.22
2018-05-26T07:31:19.225Z,23.25
2018-05-26T07:32:19.213Z,23.36
2018-05-26T07:33:19.198Z,23.39
2018-05-26T07:34:19.187Z,23.38
2018-05-26T07:35:19.175Z,23.40
2018-05-26T07:36:19.167Z,23.38
2018-05-26T07:37:19.153Z,23.48
2018-05-26T07:38:19.142Z,23.61
2018-05-26T07:39:19.131Z,23.76
2018-05-26T07:40:19.121Z,23.84
2018-05-26T07:41:19.109Z,23.95
2018-05-26T07:42:19.102Z,24.06
2018-05-26T07:43:19.087Z,24.12
2018-05-26T07:44:19.080Z,24.32
2018-05-26T07:45:19.064Z,24.43
2018-05-26T07:46:19.059Z,24.64
2018-05-26T07:47:19.060Z,24.96
2018-05-26T07:48:19.035Z,25.27
2018-05-26T07:49:19.024Z,25.50
2018-05-26T07:50:19.013Z,25.83
2018-05-26T07:51:19.003Z,26.07
2018-05-26T07:52:18.991Z,26.43
2018-05-26T07:53:18.982Z,26.69
2018-05-26T07:54:18.971Z,27.06
2018-05-26T07:55:18.961Z,27.40
2018-05-26T07:56:18.950Z,27.75
2018-05-26T07:57:18.942Z,27.99
2018-05-26T07:58:19.019Z,28.12
2018-05-26T07:59:18.921Z,28.39
2018-05-26T08:00:18.916Z,28.74
2018-05-26T08:01:18.901Z,28.39
2018-05-26T08:02:18.891Z,28.06
2018-05-26T08:03:18.889Z,27.84
2018-05-26T08:04:18.873Z,27.55
2018-05-26T08:05:18.877Z,27.34
2018-05-26T08:06:18.855Z,27.10
2018-05-26T08:07:18.845Z,27.04
2018-05-26T08:08:18.835Z,26.91
2018-05-26T08:09:18.829Z,26.92
2018-05-26T08:10:18.821Z,26.77
2018-05-26T08:11:18.812Z,26.72
2018-05-26T08:12:18.801Z,26.72
2018-05-26T08:13:18.791Z,26.65
2018-05-26T08:14:18.781Z,26.62
2018-05-26T08:15:18.774Z,26.69
2018-05-26T08:16:18.765Z,26.62
2018-05-26T08:17:18.805Z,26.65
2018-05-26T08:18:18.793Z,26.69
2018-05-26T08:19:18.740Z,26.73
2018-05-26T08:20:18.730Z,26.75
2018-05-26T08:21:18.720Z,26.67
2018-05-26T08:22:18.716Z,26.60
2018-05-26T08:23:18.704Z,26.62
2018-05-26T08:24:18.696Z,26.60
2018-05-26T08:25:18.692Z,26.60
2018-05-26T08:26:18.677Z,26.57
2018-05-26T08:27:18.709Z,26.60
2018-05-26T08:28:18.663Z,26.54
2018-05-26T08:29:18.655Z,26.57
2018-05-26T08:30:18.649Z,26.48
2018-05-26T08:31:18.637Z,26.54
2018-05-26T08:32:18.626Z,26.50
2018-05-26T08:33:18.623Z,26.51
2018-05-26T08:34:18.611Z,26.57
2018-05-26T08:35:18.605Z,26.63
2018-05-26T08:36:18.593Z,26.67
2018-05-26T08:37:18.586Z,26.67
2018-05-26T08:38:18.581Z,26.72
2018-05-26T08:39:18.568Z,26.77
2018-05-26T08:40:18.560Z,26.72
2018-05-26T08:41:18.555Z,26.81
2018-05-26T08:42:18.547Z,26.82
2018-05-26T08:43:18.537Z,26.82
2018-05-26T08:44:18.529Z,26.91
2018-05-26T08:45:18.519Z,26.85
2018-05-26T08:46:18.516Z,26.85
2018-05-26T08:47:18.503Z,26.88
2018-05-26T08:48:18.495Z,26.85
2018-05-26T08:49:18.489Z,26.97
2018-05-26T08:50:18.493Z,26.99
2018-05-26T08:51:18.472Z,26.95
2018-05-26T08:52:18.465Z,27.03
2018-05-26T08:53:18.459Z,27.12
2018-05-26T08:54:18.447Z,27.12
2018-05-26T08:55:18.441Z,27.19
2018-05-26T08:56:18.435Z,27.18
2018-05-26T08:57:18.426Z,27.24
2018-05-26T08:58:18.415Z,27.25
2018-05-26T08:59:18.408Z,27.18
2018-05-26T09:00:18.410Z,27.21
2018-05-26T09:01:18.397Z,27.34
2018-05-26T09:02:18.459Z,27.39
2018-05-26T09:03:18.377Z,27.41
2018-05-26T09:04:18.374Z,27.41
2018-05-26T09:05:18.367Z,27.43
2018-05-26T09:06:18.358Z,27.46
2018-05-26T09:07:18.350Z,27.36
2018-05-26T09:08:18.343Z,27.46
2018-05-26T09:09:18.344Z,27.44
2018-05-26T09:10:18.328Z,27.60
2018-05-26T09:11:18.339Z,27.57
2018-05-26T09:12:18.311Z,27.66
2018-05-26T09:13:18.303Z,27.67
2018-05-26T09:14:18.296Z,27.75
2018-05-26T09:15:18.288Z,27.63
2018-05-26T09:16:18.283Z,27.62
2018-05-26T09:17:18.272Z,27.69
2018-05-26T09:18:18.267Z,27.67
2018-05-26T09:19:18.258Z,27.75
2018-05-26T09:20:18.264Z,27.78
2018-05-26T09:21:18.248Z,27.78
2018-05-26T09:22:18.237Z,27.84
2018-05-26T09:23:18.229Z,27.85
2018-05-26T09:24:18.224Z,27.88
2018-05-26T09:25:18.250Z,28.02
2018-05-26T09:26:18.208Z,27.97
2018-05-26T09:27:18.201Z,28.07
2018-05-26T09:28:18.198Z,28.11
2018-05-26T09:29:18.184Z,28.24
2018-05-26T09:30:18.210Z,28.24
2018-05-26T09:31:18.210Z,28.34
2018-05-26T09:32:18.165Z,28.34
2018-05-26T09:33:18.158Z,28.29
2018-05-26T09:34:18.149Z,28.29
2018-05-26T09:35:18.143Z,28.24
2018-05-26T09:36:18.137Z,28.24
2018-05-26T09:37:18.130Z,28.36
2018-05-26T09:38:18.131Z,28.19
2018-05-26T09:39:18.117Z,28.21
2018-05-26T09:40:18.110Z,28.11
2018-05-26T09:41:18.109Z,28.04
2018-05-26T09:42:18.096Z,28.19
2018-05-26T09:43:18.100Z,28.22
2018-05-26T09:44:18.082Z,28.33
2018-05-26T09:45:18.076Z,28.40
2018-05-26T09:46:18.071Z,28.36
2018-05-26T09:47:18.065Z,28.39
2018-05-26T09:48:18.060Z,28.43
2018-05-26T09:49:18.051Z,28.46
2018-05-26T09:50:18.049Z,28.51
2018-05-26T09:51:18.035Z,28.55
2018-05-26T09:52:18.029Z,28.52
2018-05-26T09:53:18.023Z,28.49
2018-05-26T09:54:18.016Z,28.39
2018-05-26T09:55:18.009Z,28.36
2018-05-26T09:56:18.007Z,28.34
2018-05-26T09:57:17.997Z,28.80
2018-05-26T09:58:17.991Z,29.15
2018-05-26T09:59:17.991Z,29.43
2018-05-26T10:00:17.979Z,29.78
2018-05-26T10:01:17.972Z,30.04
2018-05-26T10:02:17.966Z,30.13
2018-05-26T10:03:17.962Z,30.32
2018-05-26T10:04:17.994Z,30.67
2018-05-26T10:05:18.015Z,31.10
2018-05-26T10:06:17.947Z,31.34
2018-05-26T10:07:17.946Z,31.66
2018-05-26T10:08:17.943Z,31.92
2018-05-26T10:09:17.941Z,32.23
2018-05-26T10:10:17.934Z,32.47
2018-05-26T10:11:17.931Z,32.57
2018-05-26T10:12:17.928Z,32.65
2018-05-26T10:13:17.930Z,32.52
2018-05-26T10:14:17.923Z,32.77
2018-05-26T10:15:17.921Z,33.18
2018-05-26T10:16:17.919Z,33.34
2018-05-26T10:17:17.915Z,33.53
2018-05-26T10:18:17.914Z,33.47
2018-05-26T10:19:17.913Z,33.54
2018-05-26T10:20:17.911Z,33.81
2018-05-26T10:21:17.907Z,34.02
2018-05-26T10:22:17.907Z,34.31
2018-05-26T10:23:17.912Z,34.47
2018-05-26T10:24:17.905Z,34.70
2018-05-26T10:25:17.907Z,34.78
2018-05-26T10:26:17.975Z,35.06
2018-05-26T10:27:17.907Z,35.06
2018-05-26T10:28:17.905Z,35.22
2018-05-26T10:29:17.901Z,35.28
2018-05-26T10:30:17.907Z,35.41
2018-05-26T10:31:17.899Z,35.62
2018-05-26T10:32:17.949Z,35.96
2018-05-26T10:33:17.902Z,36.20
2018-05-26T10:34:17.906Z,36.53
2018-05-26T10:35:17.902Z,36.69
2018-05-26T10:36:17.904Z,36.87
2018-05-26T10:37:17.904Z,37.13
2018-05-26T10:38:17.905Z,37.12
2018-05-26T10:39:17.905Z,37.09
2018-05-26T10:40:17.910Z,37.47
2018-05-26T10:41:17.906Z,37.60
2018-05-26T10:42:17.910Z,37.88
2018-05-26T10:43:17.963Z,38.04
2018-05-26T10:44:17.914Z,38.30
2018-05-26T10:45:17.921Z,38.19
2018-05-26T10:46:17.918Z,38.18
2018-05-26T10:47:17.944Z,38.38
2018-05-26T10:48:17.924Z,38.34
2018-05-26T10:49:17.924Z,38.42
2018-05-26T10:50:17.928Z,38.61
2018-05-26T10:51:17.929Z,38.90
2018-05-26T10:52:17.932Z,39.16
2018-05-26T10:53:17.935Z,39.16
2018-05-26T10:54:17.938Z,39.35
2018-05-26T10:55:17.943Z,39.69
2018-05-26T10:56:17.945Z,40.01
2018-05-26T10:57:17.954Z,40.20
2018-05-26T10:58:17.953Z,40.12
2018-05-26T10:59:17.957Z,39.57
2018-05-26T11:00:17.960Z,39.11
2018-05-26T11:01:17.964Z,38.30
2018-05-26T11:02:17.967Z,37.32
2018-05-26T11:03:17.971Z,36.81
2018-05-26T11:04:18.044Z,36.47
2018-05-26T11:05:17.975Z,36.17
2018-05-26T11:06:18.004Z,35.77
2018-05-26T11:07:17.984Z,35.62
2018-05-26T11:08:17.985Z,35.37
2018-05-26T11:09:17.985Z,35.18
2018-05-26T11:10:17.988Z,34.77
2018-05-26T11:11:17.988Z,34.28
2018-05-26T11:12:17.993Z,33.81
2018-05-26T11:13:17.989Z,33.49
2018-05-26T11:14:17.996Z,33.28
2018-05-26T11:15:17.993Z,32.97
2018-05-26T11:16:17.995Z,32.65
2018-05-26T11:17:17.996Z,32.30
2018-05-26T11:18:17.996Z,32.22
2018-05-26T11:19:17.996Z,32.04
2018-05-26T11:20:18.076Z,31.95
2018-05-26T11:21:17.995Z,32.28
2018-05-26T11:22:17.998Z,32.89
2018-05-26T11:23:18.008Z,33.57
2018-05-26T11:24:18.004Z,34.34
2018-05-26T11:25:17.998Z,34.97
2018-05-26T11:26:18.056Z,35.53
2018-05-26T11:27:17.996Z,35.92
2018-05-26T11:28:18.006Z,36.59
2018-05-26T11:29:17.995Z,36.95
2018-05-26T11:30:18.015Z,37.28
2018-05-26T11:31:17.998Z,37.50
2018-05-26T11:32:18.002Z,37.75
2018-05-26T11:33:17.999Z,38.16
2018-05-26T11:34:18.013Z,38.65
2018-05-26T11:35:17.999Z,39.09
2018-05-26T11:36:18.008Z,39.41
2018-05-26T11:37:18.030Z,39.84
2018-05-26T11:38:18.005Z,39.85
2018-05-26T11:39:18.014Z,39.94
2018-05-26T11:40:18.010Z,39.89
2018-05-26T11:41:18.012Z,40.13
2018-05-26T11:42:18.014Z,40.19
2018-05-26T11:43:18.016Z,40.42
2018-05-26T11:44:18.019Z,40.39
2018-05-26T11:45:18.020Z,40.19
2018-05-26T11:46:18.024Z,40.26
2018-05-26T11:47:18.024Z,40.42
2018-05-26T11:48:18.027Z,40.46
2018-05-26T11:49:18.027Z,40.08
2018-05-26T11:50:18.032Z,39.44
2018-05-26T11:51:18.032Z,39.14
2018-05-26T11:52:18.036Z,38.68
2018-05-26T11:53:18.080Z,38.18
2018-05-26T11:54:18.038Z,37.59
2018-05-26T11:55:18.039Z,37.47
2018-05-26T11:56:18.039Z,37.89
2018-05-26T11:57:18.043Z,38.23
2018-05-26T11:58:18.046Z,38.25
2018-05-26T11:59:18.045Z,38.00
2018-05-26T12:00:18.057Z,37.40
2018-05-26T12:01:18.056Z,37.09
2018-05-26T12:02:18.050Z,37.07
2018-05-26T12:03:18.058Z,37.32
2018-05-26T12:04:18.054Z,36.99
2018-05-26T12:05:18.056Z,36.72
2018-05-26T12:06:18.055Z,37.18
2018-05-26T12:07:18.065Z,37.40
2018-05-26T12:08:18.059Z,37.60
2018-05-26T12:09:18.059Z,37.75
2018-05-26T12:10:18.060Z,37.93
2018-05-26T12:11:18.067Z,38.04
2018-05-26T12:12:18.068Z,38.38
2018-05-26T12:13:18.069Z,38.91
2018-05-26T12:14:18.072Z,39.18
2018-05-26T12:15:18.073Z,39.40
2018-05-26T12:16:18.073Z,39.38
2018-05-26T12:17:18.075Z,39.28
2018-05-26T12:18:18.075Z,39.30
2018-05-26T12:19:18.078Z,39.59
2018-05-26T12:20:18.080Z,39.70
2018-05-26T12:21:18.089Z,39.85
2018-05-26T12:22:18.088Z,39.57
2018-05-26T12:23:18.091Z,39.72
2018-05-26T12:24:18.102Z,40.07
2018-05-26T12:25:18.092Z,40.23
2018-05-26T12:26:18.102Z,40.43
2018-05-26T12:27:18.097Z,40.65
2018-05-26T12:28:18.100Z,40.80
2018-05-26T12:29:18.103Z,40.62
2018-05-26T12:30:18.105Z,40.23
2018-05-26T12:31:18.111Z,39.89
2018-05-26T12:32:18.112Z,39.51
2018-05-26T12:33:18.120Z,39.43
2018-05-26T12:34:18.117Z,39.17
2018-05-26T12:35:18.129Z,39.32
2018-05-26T12:36:18.125Z,39.26
2018-05-26T12:37:18.126Z,38.81
2018-05-26T12:38:18.131Z,38.56
2018-05-26T12:39:18.133Z,38.88
2018-05-26T12:40:18.136Z,39.06
2018-05-26T12:41:18.138Z,39.09
2018-05-26T12:42:18.141Z,38.76
2018-05-26T12:43:18.142Z,38.16
2018-05-26T12:44:18.145Z,38.16
2018-05-26T12:45:18.238Z,38.18
2018-05-26T12:46:18.151Z,38.34
2018-05-26T12:47:18.149Z,38.47
2018-05-26T12:48:18.152Z,38.26
2018-05-26T12:49:18.152Z,38.22
2018-05-26T12:50:18.153Z,38.30
2018-05-26T12:51:18.155Z,38.37
2018-05-26T12:52:18.257Z,38.53